PWSweather.com
Personal Weather Stations
Station Observations
PWSTHORN2
Thornton, Nh Usa, Thornton, NH 03285

Thornton, Nh UsaThornton, NH 03285

Lat: 43.8870699, Lon: -71.6632763

Elevation: 640

Station Type: Ambient WS 2080

High Low Average
Temperature 69.4°F20.8°C 53.8°F12.1°C 64.0°F17.8°C
Dew Point 55.9°F13.3°C 41.1°F5.1°C 50.7°F10.4°C
Winds 19.7 mph 31.7 kmh Calm Calm 4.0 mph SSE6.4 kmh SSE
Wind Gusts 32.0 mph51.5 kmh -- 11.0 mph17.7 kmh
Humidity 62% 62% 62%
Pressure 29.58 in1001.7 mb 29.36 in994.2 mb -
Precipitation 0.39 in9.9 mm - -
Hour Temp Dew Point Humidity Winds Wind Gusts Pressure Precip Precip Rate Daily Precip Total
12:00 AM 67.8°F19.9°C 54.3°F12.4°C 62% 3.8 mph E6.1 kmh E 8.3 mph13.4 kmh 29.52 in999.7 mb 0.00 in0.0 mm 0.00 in0.0 mm 0.00 in0.0 mm
12:05 AM 67.5°F19.7°C 54.0°F12.2°C 62% 1.6 mph E2.6 kmh E 8.3 mph13.4 kmh 29.52 in999.7 mb 0.00 in0.0 mm 0.00 in0.0 mm 0.00 in0.0 mm
12:10 AM 67.5°F19.7°C 54.0°F12.2°C 62% 0.7 mph E1.1 kmh E 5.4 mph8.7 kmh 29.51 in999.3 mb 0.00 in0.0 mm 0.00 in0.0 mm 0.00 in0.0 mm
12:15 AM 67.5°F19.7°C 54.0°F12.2°C 62% 0.7 mph E1.1 kmh E 5.4 mph8.7 kmh 29.51 in999.3 mb 0.00 in0.0 mm 0.00 in0.0 mm 0.00 in0.0 mm
12:20 AM 67.5°F19.7°C 54.0°F12.2°C 62% 2.2 mph E3.5 kmh E 5.4 mph8.7 kmh 29.50 in999.0 mb 0.00 in0.0 mm 0.00 in0.0 mm 0.00 in0.0 mm
12:25 AM 67.1°F19.5°C 53.7°F12.1°C 62% 2.2 mph E3.5 kmh E 6.9 mph11.1 kmh 29.50 in999.0 mb 0.00 in0.0 mm 0.00 in0.0 mm 0.00 in0.0 mm
12:30 AM 67.3°F19.6°C 53.8°F12.1°C 62% 3.1 mph E5.0 kmh E 9.2 mph14.8 kmh 29.50 in999.0 mb 0.00 in0.0 mm 0.00 in0.0 mm 0.00 in0.0 mm
12:35 AM 67.5°F19.7°C 54.0°F12.2°C 62% 1.6 mph E2.6 kmh E 9.2 mph14.8 kmh 29.49 in998.6 mb 0.00 in0.0 mm 0.00 in0.0 mm 0.00 in0.0 mm
12:40 AM 67.3°F19.6°C 53.8°F12.1°C 62% 0.7 mph E1.1 kmh E 7.6 mph12.2 kmh 29.50 in999.0 mb 0.00 in0.0 mm 0.00 in0.0 mm 0.00 in0.0 mm
12:45 AM 66.7°F19.3°C 53.3°F11.8°C 62% 0.7 mph E1.1 kmh E 6.9 mph11.1 kmh 29.50 in999.0 mb 0.00 in0.0 mm 0.00 in0.0 mm 0.00 in0.0 mm
12:50 AM 66.4°F19.1°C 53.0°F11.7°C 62% 1.6 mph E2.6 kmh E 4.5 mph7.2 kmh 29.50 in999.0 mb 0.00 in0.0 mm 0.00 in0.0 mm 0.00 in0.0 mm
12:55 AM 65.8°F18.8°C 52.5°F11.4°C 62% 1.6 mph E2.6 kmh E 4.5 mph7.2 kmh 29.49 in998.6 mb 0.01 in0.3 mm 0.12 in3.0 mm 0.01 in0.3 mm
01:00 AM 65.1°F18.4°C 51.8°F11.0°C 62% 3.1 mph E5.0 kmh E 4.5 mph7.2 kmh 29.48 in998.3 mb 0.01 in0.3 mm 0.00 in0.0 mm 0.01 in0.3 mm
01:05 AM 64.6°F18.1°C 51.3°F10.7°C 62% 1.6 mph E2.6 kmh E 4.5 mph7.2 kmh 29.48 in998.3 mb 0.02 in0.5 mm 0.12 in3.0 mm 0.02 in0.5 mm
01:10 AM 64.4°F18.0°C 51.1°F10.6°C 62% Calm Calm 4.5 mph7.2 kmh 29.48 in998.3 mb 0.04 in1.0 mm 0.24 in6.1 mm 0.04 in1.0 mm
01:15 AM 64.2°F17.9°C 50.9°F10.5°C 62% 0.7 mph E1.1 kmh E 4.5 mph7.2 kmh 29.48 in998.3 mb 0.04 in1.0 mm 0.00 in0.0 mm 0.04 in1.0 mm
01:20 AM 64.0°F17.8°C 50.8°F10.4°C 62% Calm Calm 2.2 mph3.5 kmh 29.48 in998.3 mb 0.04 in1.0 mm 0.00 in0.0 mm 0.04 in1.0 mm
01:25 AM 64.0°F17.8°C 50.8°F10.4°C 62% Calm Calm 2.2 mph3.5 kmh 29.48 in998.3 mb 0.05 in1.3 mm 0.12 in3.0 mm 0.05 in1.3 mm
01:30 AM 64.0°F17.8°C 50.8°F10.4°C 62% Calm Calm 2.2 mph3.5 kmh 29.48 in998.3 mb 0.05 in1.3 mm 0.00 in0.0 mm 0.05 in1.3 mm
01:35 AM 64.0°F17.8°C 50.8°F10.4°C 62% 0.7 mph E1.1 kmh E 2.2 mph3.5 kmh 29.47 in998.0 mb 0.06 in1.5 mm 0.12 in3.0 mm 0.06 in1.5 mm
01:40 AM 64.0°F17.8°C 50.8°F10.4°C 62% Calm Calm 3.1 mph5.0 kmh 29.47 in998.0 mb 0.06 in1.5 mm 0.00 in0.0 mm 0.06 in1.5 mm
01:45 AM 64.0°F17.8°C 50.8°F10.4°C 62% Calm Calm 3.1 mph5.0 kmh 29.46 in997.6 mb 0.06 in1.5 mm 0.00 in0.0 mm 0.06 in1.5 mm
01:50 AM 64.0°F17.8°C 50.8°F10.4°C 62% 0.7 mph E1.1 kmh E 2.2 mph3.5 kmh 29.46 in997.6 mb 0.06 in1.5 mm 0.00 in0.0 mm 0.06 in1.5 mm
01:55 AM 64.0°F17.8°C 50.8°F10.4°C 62% Calm Calm 2.2 mph3.5 kmh 29.46 in997.6 mb 0.06 in1.5 mm 0.00 in0.0 mm 0.07 in1.8 mm
02:00 AM 64.0°F17.8°C 50.8°F10.4°C 62% Calm Calm 2.2 mph3.5 kmh 29.46 in997.6 mb 0.07 in1.8 mm 0.01 in0.3 mm 0.08 in2.0 mm
02:05 AM 64.0°F17.8°C 50.8°F10.4°C 62% Calm Calm 2.2 mph3.5 kmh 29.45 in997.3 mb 0.06 in1.5 mm 0.00 in0.0 mm 0.08 in2.0 mm
02:10 AM 64.0°F17.8°C 50.8°F10.4°C 62% Calm Calm 1.6 mph2.6 kmh 29.45 in997.3 mb 0.06 in1.5 mm 0.00 in0.0 mm 0.09 in2.3 mm
02:15 AM 64.0°F17.8°C 50.8°F10.4°C 62% Calm Calm 1.6 mph2.6 kmh 29.45 in997.3 mb 0.06 in1.5 mm 0.00 in0.0 mm 0.09 in2.3 mm
02:20 AM 63.9°F17.7°C 50.6°F10.3°C 62% Calm Calm 1.6 mph2.6 kmh 29.44 in997.0 mb 0.06 in1.5 mm 0.00 in0.0 mm 0.09 in2.3 mm
02:25 AM 64.0°F17.8°C 50.8°F10.4°C 62% Calm Calm 2.2 mph3.5 kmh 29.44 in997.0 mb 0.07 in1.8 mm 0.12 in3.0 mm 0.12 in3.0 mm
02:30 AM 64.0°F17.8°C 50.8°F10.4°C 62% 1.6 mph E2.6 kmh E 2.2 mph3.5 kmh 29.44 in997.0 mb 0.07 in1.8 mm 0.00 in0.0 mm 0.12 in3.0 mm
02:35 AM 63.9°F17.7°C 50.6°F10.3°C 62% 0.7 mph E1.1 kmh E 3.8 mph6.1 kmh 29.44 in997.0 mb 0.06 in1.5 mm 0.00 in0.0 mm 0.12 in3.0 mm
02:40 AM 63.9°F17.7°C 50.6°F10.3°C 62% 2.2 mph E3.5 kmh E 3.8 mph6.1 kmh 29.44 in997.0 mb 0.06 in1.5 mm 0.00 in0.0 mm 0.12 in3.0 mm
02:45 AM 63.9°F17.7°C 50.6°F10.3°C 62% Calm Calm 3.1 mph5.0 kmh 29.44 in997.0 mb 0.07 in1.8 mm 0.12 in3.0 mm 0.13 in3.3 mm
02:50 AM 63.9°F17.7°C 50.6°F10.3°C 62% Calm Calm 3.1 mph5.0 kmh 29.44 in997.0 mb 0.08 in2.0 mm 0.12 in3.0 mm 0.14 in3.6 mm
02:55 AM 63.9°F17.7°C 50.6°F10.3°C 62% Calm Calm 3.8 mph6.1 kmh 29.43 in996.6 mb 0.08 in2.0 mm 0.00 in0.0 mm 0.15 in3.8 mm
03:00 AM 63.9°F17.7°C 50.6°F10.3°C 62% Calm Calm 3.8 mph6.1 kmh 29.44 in997.0 mb 0.08 in2.0 mm 0.00 in0.0 mm 0.17 in4.3 mm
03:05 AM 63.7°F17.6°C 50.4°F10.2°C 62% 0.7 mph E1.1 kmh E 2.2 mph3.5 kmh 29.44 in997.0 mb 0.08 in2.0 mm 0.00 in0.0 mm 0.17 in4.3 mm
03:10 AM 63.7°F17.6°C 50.4°F10.2°C 62% Calm Calm 2.2 mph3.5 kmh 29.42 in996.3 mb 0.07 in1.8 mm 0.00 in0.0 mm 0.17 in4.3 mm
03:15 AM 63.5°F17.5°C 50.3°F10.2°C 62% Calm Calm 2.2 mph3.5 kmh 29.42 in996.3 mb 0.08 in2.0 mm 0.12 in3.0 mm 0.18 in4.6 mm
03:20 AM 63.5°F17.5°C 50.3°F10.2°C 62% Calm Calm 2.2 mph3.5 kmh 29.42 in996.3 mb 0.08 in2.0 mm 0.00 in0.0 mm 0.19 in4.8 mm
03:25 AM 63.3°F17.4°C 50.1°F10.1°C 62% Calm Calm 3.1 mph5.0 kmh 29.42 in996.3 mb 0.07 in1.8 mm 0.00 in0.0 mm 0.19 in4.8 mm
03:30 AM 63.3°F17.4°C 50.1°F10.1°C 62% Calm Calm 3.1 mph5.0 kmh 29.41 in995.9 mb 0.08 in2.0 mm 0.12 in3.0 mm 0.20 in5.1 mm
03:35 AM 63.3°F17.4°C 50.1°F10.1°C 62% 0.7 mph E1.1 kmh E 2.2 mph3.5 kmh 29.41 in995.9 mb 0.08 in2.0 mm 0.00 in0.0 mm 0.20 in5.1 mm
03:40 AM 63.3°F17.4°C 50.1°F10.1°C 62% 1.6 mph E2.6 kmh E 3.1 mph5.0 kmh 29.41 in995.9 mb 0.09 in2.3 mm 0.12 in3.0 mm 0.21 in5.3 mm
03:45 AM 63.1°F17.3°C 49.9°F9.9°C 62% Calm Calm 3.1 mph5.0 kmh 29.41 in995.9 mb 0.08 in2.0 mm 0.00 in0.0 mm 0.21 in5.3 mm
03:50 AM 63.1°F17.3°C 49.9°F9.9°C 62% 0.7 mph E1.1 kmh E 2.2 mph3.5 kmh 29.41 in995.9 mb 0.07 in1.8 mm 0.00 in0.0 mm 0.21 in5.3 mm
03:55 AM 63.1°F17.3°C 49.9°F9.9°C 62% Calm Calm 2.2 mph3.5 kmh 29.40 in995.6 mb 0.06 in1.5 mm 0.00 in0.0 mm 0.21 in5.3 mm
04:00 AM 63.0°F17.2°C 49.8°F9.9°C 62% Calm Calm 2.2 mph3.5 kmh 29.41 in995.9 mb 0.05 in1.3 mm 0.00 in0.0 mm 0.21 in5.3 mm
04:05 AM 63.0°F17.2°C 49.8°F9.9°C 62% Calm Calm 1.6 mph2.6 kmh 29.40 in995.6 mb 0.06 in1.5 mm 0.12 in3.0 mm 0.22 in5.6 mm
04:10 AM 63.0°F17.2°C 49.8°F9.9°C 62% 1.6 mph E2.6 kmh E 3.1 mph5.0 kmh 29.40 in995.6 mb 0.06 in1.5 mm 0.00 in0.0 mm 0.22 in5.6 mm
04:15 AM 63.0°F17.2°C 49.8°F9.9°C 62% Calm Calm 3.1 mph5.0 kmh 29.41 in995.9 mb 0.05 in1.3 mm 0.00 in0.0 mm 0.22 in5.6 mm
04:20 AM 62.8°F17.1°C 49.6°F9.8°C 62% Calm Calm 2.2 mph3.5 kmh 29.39 in995.3 mb 0.04 in1.0 mm 0.00 in0.0 mm 0.22 in5.6 mm
04:25 AM 62.8°F17.1°C 49.6°F9.8°C 62% 0.7 mph E1.1 kmh E 2.2 mph3.5 kmh 29.39 in995.3 mb 0.04 in1.0 mm 0.00 in0.0 mm 0.22 in5.6 mm
04:30 AM 62.8°F17.1°C 49.6°F9.8°C 62% Calm Calm 2.2 mph3.5 kmh 29.39 in995.3 mb 0.04 in1.0 mm 0.00 in0.0 mm 0.24 in6.1 mm
04:35 AM 62.6°F17.0°C 49.4°F9.7°C 62% Calm Calm 2.2 mph3.5 kmh 29.39 in995.3 mb 0.04 in1.0 mm 0.00 in0.0 mm 0.24 in6.1 mm
04:40 AM 62.6°F17.0°C 49.4°F9.7°C 62% Calm Calm 1.6 mph2.6 kmh 29.39 in995.3 mb 0.02 in0.5 mm 0.00 in0.0 mm 0.24 in6.1 mm
04:45 AM 62.6°F17.0°C 49.4°F9.7°C 62% 0.7 mph E1.1 kmh E 1.6 mph2.6 kmh 29.38 in994.9 mb 0.02 in0.5 mm 0.00 in0.0 mm 0.24 in6.1 mm
04:50 AM 62.4°F16.9°C 49.2°F9.6°C 62% Calm Calm 2.2 mph3.5 kmh 29.38 in994.9 mb 0.02 in0.5 mm 0.00 in0.0 mm 0.24 in6.1 mm
04:55 AM 62.4°F16.9°C 49.2°F9.6°C 62% 0.7 mph E1.1 kmh E 2.2 mph3.5 kmh 29.38 in994.9 mb 0.02 in0.5 mm 0.00 in0.0 mm 0.24 in6.1 mm
05:00 AM 62.2°F16.8°C 49.1°F9.5°C 62% Calm Calm 2.2 mph3.5 kmh 29.38 in994.9 mb 0.02 in0.5 mm 0.00 in0.0 mm 0.24 in6.1 mm
05:05 AM 62.4°F16.9°C 49.2°F9.6°C 62% Calm Calm 2.2 mph3.5 kmh 29.38 in994.9 mb 0.02 in0.5 mm 0.00 in0.0 mm 0.25 in6.4 mm
05:10 AM 62.4°F16.9°C 49.2°F9.6°C 62% 0.7 mph E1.1 kmh E 1.6 mph2.6 kmh 29.37 in994.6 mb 0.02 in0.5 mm 0.00 in0.0 mm 0.25 in6.4 mm
05:15 AM 62.2°F16.8°C 49.1°F9.5°C 62% Calm Calm 1.6 mph2.6 kmh 29.37 in994.6 mb 0.02 in0.5 mm 0.00 in0.0 mm 0.25 in6.4 mm
05:20 AM 62.2°F16.8°C 49.1°F9.5°C 62% Calm Calm 1.6 mph2.6 kmh 29.37 in994.6 mb 0.02 in0.5 mm 0.00 in0.0 mm 0.25 in6.4 mm
05:25 AM 62.2°F16.8°C 49.1°F9.5°C 62% Calm Calm 3.1 mph5.0 kmh 29.38 in994.9 mb 0.01 in0.3 mm 0.00 in0.0 mm 0.25 in6.4 mm
05:30 AM 62.2°F16.8°C 49.1°F9.5°C 62% 1.6 mph E2.6 kmh E 3.1 mph5.0 kmh 29.38 in994.9 mb 0.02 in0.5 mm 0.12 in3.0 mm 0.26 in6.6 mm
05:35 AM 62.2°F16.8°C 49.1°F9.5°C 62% Calm Calm 3.1 mph5.0 kmh 29.37 in994.6 mb 0.02 in0.5 mm 0.00 in0.0 mm 0.26 in6.6 mm
05:40 AM 62.1°F16.7°C 48.9°F9.4°C 62% Calm Calm 3.1 mph5.0 kmh 29.36 in994.2 mb 0.04 in1.0 mm 0.24 in6.1 mm 0.27 in6.9 mm
05:45 AM 62.2°F16.8°C 49.1°F9.5°C 62% Calm Calm 3.1 mph5.0 kmh 29.37 in994.6 mb 0.07 in1.8 mm 0.36 in9.1 mm 0.31 in7.9 mm
05:50 AM 62.1°F16.7°C 48.9°F9.4°C 62% Calm Calm 2.2 mph3.5 kmh 29.37 in994.6 mb 0.07 in1.8 mm 0.00 in0.0 mm 0.31 in7.9 mm
05:55 AM 62.2°F16.8°C 49.1°F9.5°C 62% Calm Calm 2.2 mph3.5 kmh 29.37 in994.6 mb 0.08 in2.0 mm 0.12 in3.0 mm 0.32 in8.1 mm
06:00 AM 62.2°F16.8°C 49.1°F9.5°C 62% 1.6 mph E2.6 kmh E 2.2 mph3.5 kmh 29.37 in994.6 mb 0.08 in2.0 mm 0.00 in0.0 mm 0.32 in8.1 mm
06:05 AM 62.1°F16.7°C 48.9°F9.4°C 62% Calm Calm 3.1 mph5.0 kmh 29.36 in994.2 mb 0.07 in1.8 mm 0.00 in0.0 mm 0.32 in8.1 mm
06:10 AM 62.1°F16.7°C 48.9°F9.4°C 62% Calm Calm 3.1 mph5.0 kmh 29.37 in994.6 mb 0.08 in2.0 mm 0.12 in3.0 mm 0.33 in8.4 mm
06:15 AM 62.2°F16.8°C 49.1°F9.5°C 62% 0.7 mph E1.1 kmh E 1.6 mph2.6 kmh 29.37 in994.6 mb 0.08 in2.0 mm 0.00 in0.0 mm 0.33 in8.4 mm
06:20 AM 62.2°F16.8°C 49.1°F9.5°C 62% Calm Calm 1.6 mph2.6 kmh 29.37 in994.6 mb 0.09 in2.3 mm 0.12 in3.0 mm 0.34 in8.6 mm
06:25 AM 62.2°F16.8°C 49.1°F9.5°C 62% Calm Calm 1.6 mph2.6 kmh 29.37 in994.6 mb 0.09 in2.3 mm 0.00 in0.0 mm 0.34 in8.6 mm
06:30 AM 62.2°F16.8°C 49.1°F9.5°C 62% Calm Calm 1.6 mph2.6 kmh 29.37 in994.6 mb 0.09 in2.3 mm 0.00 in0.0 mm 0.35 in8.9 mm
06:35 AM 62.2°F16.8°C 49.1°F9.5°C 62% Calm Calm 0.7 mph1.1 kmh 29.37 in994.6 mb 0.09 in2.3 mm 0.00 in0.0 mm 0.35 in8.9 mm
06:40 AM 62.2°F16.8°C 49.1°F9.5°C 62% Calm Calm 0.7 mph1.1 kmh 29.37 in994.6 mb 0.08 in2.0 mm 0.00 in0.0 mm 0.35 in8.9 mm
06:45 AM 62.4°F16.9°C 49.2°F9.6°C 62% Calm Calm -- 29.36 in994.2 mb 0.05 in1.3 mm 0.00 in0.0 mm 0.35 in8.9 mm
06:50 AM 62.6°F17.0°C 49.4°F9.7°C 62% Calm Calm -- 29.37 in994.6 mb 0.06 in1.5 mm 0.12 in3.0 mm 0.37 in9.4 mm
06:55 AM 62.6°F17.0°C 49.4°F9.7°C 62% Calm Calm -- 29.37 in994.6 mb 0.05 in1.3 mm 0.00 in0.0 mm 0.37 in9.4 mm
07:00 AM 62.6°F17.0°C 49.4°F9.7°C 62% Calm Calm 0.7 mph1.1 kmh 29.36 in994.2 mb 0.05 in1.3 mm 0.00 in0.0 mm 0.37 in9.4 mm
07:05 AM 62.8°F17.1°C 49.6°F9.8°C 62% 0.7 mph E1.1 kmh E 1.6 mph2.6 kmh 29.37 in994.6 mb 0.05 in1.3 mm 0.00 in0.0 mm 0.37 in9.4 mm
07:10 AM 63.0°F17.2°C 49.8°F9.9°C 62% 0.7 mph E1.1 kmh E 2.2 mph3.5 kmh 29.37 in994.6 mb 0.05 in1.3 mm 0.00 in0.0 mm 0.38 in9.7 mm
07:15 AM 63.0°F17.2°C 49.8°F9.9°C 62% 1.6 mph E2.6 kmh E 2.2 mph3.5 kmh 29.36 in994.2 mb 0.05 in1.3 mm 0.00 in0.0 mm 0.38 in9.7 mm
07:20 AM 63.0°F17.2°C 49.8°F9.9°C 62% Calm Calm 2.2 mph3.5 kmh 29.37 in994.6 mb 0.04 in1.0 mm 0.00 in0.0 mm 0.38 in9.7 mm
07:25 AM 63.1°F17.3°C 49.9°F9.9°C 62% Calm Calm 2.2 mph3.5 kmh 29.37 in994.6 mb 0.04 in1.0 mm 0.00 in0.0 mm 0.38 in9.7 mm
07:30 AM 63.1°F17.3°C 49.9°F9.9°C 62% Calm Calm 0.7 mph1.1 kmh 29.37 in994.6 mb 0.02 in0.5 mm 0.00 in0.0 mm 0.38 in9.7 mm
07:35 AM 63.3°F17.4°C 50.1°F10.1°C 62% 0.7 mph E1.1 kmh E 2.2 mph3.5 kmh 29.36 in994.2 mb 0.02 in0.5 mm 0.00 in0.0 mm 0.38 in9.7 mm
07:40 AM 63.3°F17.4°C 50.1°F10.1°C 62% Calm Calm 2.2 mph3.5 kmh 29.37 in994.6 mb 0.02 in0.5 mm 0.00 in0.0 mm 0.38 in9.7 mm
07:45 AM 63.5°F17.5°C 50.3°F10.2°C 62% Calm Calm 1.6 mph2.6 kmh 29.37 in994.6 mb 0.02 in0.5 mm 0.00 in0.0 mm 0.38 in9.7 mm
07:50 AM 63.5°F17.5°C 50.3°F10.2°C 62% 0.7 mph E1.1 kmh E 2.2 mph3.5 kmh 29.37 in994.6 mb 0.01 in0.3 mm 0.00 in0.0 mm 0.38 in9.7 mm
07:55 AM 63.7°F17.6°C 50.4°F10.2°C 62% 0.7 mph E1.1 kmh E 3.1 mph5.0 kmh 29.37 in994.6 mb 0.01 in0.3 mm 0.00 in0.0 mm 0.38 in9.7 mm
08:00 AM 63.7°F17.6°C 50.4°F10.2°C 62% 0.7 mph E1.1 kmh E 3.1 mph5.0 kmh 29.37 in994.6 mb 0.01 in0.3 mm 0.00 in0.0 mm 0.38 in9.7 mm
08:05 AM 63.7°F17.6°C 50.4°F10.2°C 62% 0.7 mph E1.1 kmh E 2.2 mph3.5 kmh 29.37 in994.6 mb 0.01 in0.3 mm 0.00 in0.0 mm 0.38 in9.7 mm
08:10 AM 63.9°F17.7°C 50.6°F10.3°C 62% Calm Calm 1.6 mph2.6 kmh 29.37 in994.6 mb 0.00 in0.0 mm 0.00 in0.0 mm 0.38 in9.7 mm
08:15 AM 63.9°F17.7°C 50.6°F10.3°C 62% Calm Calm 1.6 mph2.6 kmh 29.37 in994.6 mb 0.00 in0.0 mm 0.00 in0.0 mm 0.38 in9.7 mm
08:20 AM 64.2°F17.9°C 50.9°F10.5°C 62% 0.7 mph E1.1 kmh E 1.6 mph2.6 kmh 29.36 in994.2 mb 0.00 in0.0 mm 0.00 in0.0 mm 0.38 in9.7 mm
08:25 AM 64.4°F18.0°C 51.1°F10.6°C 62% Calm Calm 1.6 mph2.6 kmh 29.37 in994.6 mb 0.00 in0.0 mm 0.00 in0.0 mm 0.38 in9.7 mm
08:30 AM 64.4°F18.0°C 51.1°F10.6°C 62% 0.7 mph E1.1 kmh E 1.6 mph2.6 kmh 29.37 in994.6 mb 0.00 in0.0 mm 0.00 in0.0 mm 0.38 in9.7 mm
08:35 AM 64.6°F18.1°C 51.3°F10.7°C 62% Calm Calm 1.6 mph2.6 kmh 29.37 in994.6 mb 0.00 in0.0 mm 0.00 in0.0 mm 0.38 in9.7 mm
08:40 AM 64.8°F18.2°C 51.5°F10.8°C 62% Calm Calm 1.6 mph2.6 kmh 29.37 in994.6 mb 0.00 in0.0 mm 0.00 in0.0 mm 0.38 in9.7 mm
08:45 AM 64.9°F18.3°C 51.6°F10.9°C 62% Calm Calm 1.6 mph2.6 kmh 29.37 in994.6 mb 0.00 in0.0 mm 0.00 in0.0 mm 0.38 in9.7 mm
08:50 AM 64.9°F18.3°C 51.6°F10.9°C 62% Calm Calm 0.7 mph1.1 kmh 29.37 in994.6 mb 0.00 in0.0 mm 0.00 in0.0 mm 0.38 in9.7 mm
08:55 AM 64.6°F18.1°C 51.3°F10.7°C 62% Calm Calm 0.7 mph1.1 kmh 29.37 in994.6 mb 0.00 in0.0 mm 0.00 in0.0 mm 0.38 in9.7 mm
09:00 AM 64.6°F18.1°C 51.3°F10.7°C 62% Calm Calm -- 29.37 in994.6 mb 0.00 in0.0 mm 0.00 in0.0 mm 0.38 in9.7 mm
09:05 AM 65.1°F18.4°C 51.8°F11.0°C 62% Calm Calm 1.6 mph2.6 kmh 29.37 in994.6 mb 0.00 in0.0 mm 0.00 in0.0 mm 0.38 in9.7 mm
09:10 AM 65.5°F18.6°C 52.1°F11.2°C 62% Calm Calm 1.6 mph2.6 kmh 29.37 in994.6 mb 0.00 in0.0 mm 0.00 in0.0 mm 0.38 in9.7 mm
09:15 AM 65.8°F18.8°C 52.5°F11.4°C 62% Calm Calm 1.6 mph2.6 kmh 29.37 in994.6 mb 0.00 in0.0 mm 0.00 in0.0 mm 0.38 in9.7 mm
09:20 AM 65.8°F18.8°C 52.5°F11.4°C 62% Calm Calm 1.6 mph2.6 kmh 29.37 in994.6 mb 0.00 in0.0 mm 0.00 in0.0 mm 0.38 in9.7 mm
09:25 AM 66.0°F18.9°C 52.6°F11.4°C 62% Calm Calm 1.6 mph2.6 kmh 29.37 in994.6 mb 0.00 in0.0 mm 0.00 in0.0 mm 0.38 in9.7 mm
09:30 AM 65.7°F18.7°C 52.3°F11.3°C 62% Calm Calm 1.6 mph2.6 kmh 29.38 in994.9 mb 0.00 in0.0 mm 0.00 in0.0 mm 0.38 in9.7 mm
09:35 AM 65.5°F18.6°C 52.1°F11.2°C 62% 0.7 mph E1.1 kmh E 1.6 mph2.6 kmh 29.37 in994.6 mb 0.00 in0.0 mm 0.00 in0.0 mm 0.38 in9.7 mm
09:40 AM 65.5°F18.6°C 52.1°F11.2°C 62% Calm Calm 2.2 mph3.5 kmh 29.37 in994.6 mb 0.00 in0.0 mm 0.00 in0.0 mm 0.38 in9.7 mm
09:45 AM 65.3°F18.5°C 52.0°F11.1°C 62% Calm Calm 2.2 mph3.5 kmh 29.37 in994.6 mb 0.00 in0.0 mm 0.00 in0.0 mm 0.38 in9.7 mm
09:50 AM 65.5°F18.6°C 52.1°F11.2°C 62% Calm Calm 2.2 mph3.5 kmh 29.37 in994.6 mb 0.00 in0.0 mm 0.00 in0.0 mm 0.38 in9.7 mm
09:55 AM 65.7°F18.7°C 52.3°F11.3°C 62% Calm Calm 1.6 mph2.6 kmh 29.37 in994.6 mb 0.00 in0.0 mm 0.00 in0.0 mm 0.38 in9.7 mm
10:00 AM 65.8°F18.8°C 52.5°F11.4°C 62% Calm Calm 1.6 mph2.6 kmh 29.37 in994.6 mb 0.00 in0.0 mm 0.00 in0.0 mm 0.38 in9.7 mm
10:05 AM 65.7°F18.7°C 52.3°F11.3°C 62% Calm Calm 1.6 mph2.6 kmh 29.37 in994.6 mb 0.00 in0.0 mm 0.00 in0.0 mm 0.38 in9.7 mm
10:10 AM 65.5°F18.6°C 52.1°F11.2°C 62% Calm Calm -- 29.37 in994.6 mb 0.00 in0.0 mm 0.00 in0.0 mm 0.38 in9.7 mm
10:15 AM 65.5°F18.6°C 52.1°F11.2°C 62% Calm Calm -- 29.36 in994.2 mb 0.00 in0.0 mm 0.00 in0.0 mm 0.38 in9.7 mm
10:20 AM 65.7°F18.7°C 52.3°F11.3°C 62% Calm Calm 0.7 mph1.1 kmh 29.36 in994.2 mb 0.00 in0.0 mm 0.00 in0.0 mm 0.38 in9.7 mm
10:25 AM 65.5°F18.6°C 52.1°F11.2°C 62% 0.7 mph E1.1 kmh E 2.2 mph3.5 kmh 29.37 in994.6 mb 0.00 in0.0 mm 0.00 in0.0 mm 0.38 in9.7 mm
10:30 AM 65.3°F18.5°C 52.0°F11.1°C 62% Calm Calm 2.2 mph3.5 kmh 29.36 in994.2 mb 0.00 in0.0 mm 0.00 in0.0 mm 0.38 in9.7 mm
10:35 AM 65.5°F18.6°C 52.1°F11.2°C 62% Calm Calm 1.6 mph2.6 kmh 29.36 in994.2 mb 0.00 in0.0 mm 0.00 in0.0 mm 0.38 in9.7 mm
10:40 AM 66.0°F18.9°C 52.6°F11.4°C 62% Calm Calm 2.2 mph3.5 kmh 29.36 in994.2 mb 0.00 in0.0 mm 0.00 in0.0 mm 0.38 in9.7 mm
10:45 AM 66.6°F19.2°C 53.2°F11.8°C 62% Calm Calm 2.2 mph3.5 kmh 29.36 in994.2 mb 0.00 in0.0 mm 0.00 in0.0 mm 0.38 in9.7 mm
10:50 AM 66.7°F19.3°C 53.3°F11.8°C 62% Calm Calm 2.2 mph3.5 kmh 29.36 in994.2 mb 0.00 in0.0 mm 0.00 in0.0 mm 0.38 in9.7 mm
10:55 AM 66.4°F19.1°C 53.0°F11.7°C 62% 3.1 mph E5.0 kmh E 4.5 mph7.2 kmh 29.36 in994.2 mb 0.00 in0.0 mm 0.00 in0.0 mm 0.38 in9.7 mm
11:00 AM 66.0°F18.9°C 52.6°F11.4°C 62% 1.6 mph E2.6 kmh E 4.5 mph7.2 kmh 29.36 in994.2 mb 0.00 in0.0 mm 0.00 in0.0 mm 0.38 in9.7 mm
11:05 AM 65.7°F18.7°C 52.3°F11.3°C 62% Calm Calm 4.5 mph7.2 kmh 29.37 in994.6 mb 0.00 in0.0 mm 0.00 in0.0 mm 0.38 in9.7 mm
11:10 AM 65.7°F18.7°C 52.3°F11.3°C 62% Calm Calm 3.1 mph5.0 kmh 29.36 in994.2 mb 0.00 in0.0 mm 0.00 in0.0 mm 0.38 in9.7 mm
11:15 AM 65.7°F18.7°C 52.3°F11.3°C 62% 0.7 mph E1.1 kmh E 3.8 mph6.1 kmh 29.36 in994.2 mb 0.00 in0.0 mm 0.00 in0.0 mm 0.38 in9.7 mm
11:20 AM 65.7°F18.7°C 52.3°F11.3°C 62% Calm Calm 3.8 mph6.1 kmh 29.37 in994.6 mb 0.00 in0.0 mm 0.00 in0.0 mm 0.38 in9.7 mm
11:25 AM 66.0°F18.9°C 52.6°F11.4°C 62% 1.6 mph E2.6 kmh E 3.1 mph5.0 kmh 29.36 in994.2 mb 0.00 in0.0 mm 0.00 in0.0 mm 0.38 in9.7 mm
11:30 AM 66.0°F18.9°C 52.6°F11.4°C 62% 1.6 mph E2.6 kmh E 3.1 mph5.0 kmh 29.37 in994.6 mb 0.00 in0.0 mm 0.00 in0.0 mm 0.38 in9.7 mm
11:35 AM 66.0°F18.9°C 52.6°F11.4°C 62% 1.6 mph E2.6 kmh E 3.8 mph6.1 kmh 29.37 in994.6 mb 0.00 in0.0 mm 0.00 in0.0 mm 0.38 in9.7 mm
11:40 AM 65.8°F18.8°C 52.5°F11.4°C 62% 2.2 mph E3.5 kmh E 4.5 mph7.2 kmh 29.37 in994.6 mb 0.00 in0.0 mm 0.00 in0.0 mm 0.38 in9.7 mm
11:45 AM 66.2°F19.0°C 52.8°F11.6°C 62% 2.2 mph E3.5 kmh E 4.5 mph7.2 kmh 29.38 in994.9 mb 0.00 in0.0 mm 0.00 in0.0 mm 0.38 in9.7 mm
11:50 AM 66.2°F19.0°C 52.8°F11.6°C 62% 1.6 mph E2.6 kmh E 3.8 mph6.1 kmh 29.37 in994.6 mb 0.00 in0.0 mm 0.00 in0.0 mm 0.38 in9.7 mm
11:55 AM 66.4°F19.1°C 53.0°F11.7°C 62% Calm Calm 3.1 mph5.0 kmh 29.37 in994.6 mb 0.00 in0.0 mm 0.00 in0.0 mm 0.38 in9.7 mm
12:00 PM 66.6°F19.2°C 53.2°F11.8°C 62% 9.2 mph E14.8 kmh E 14.5 mph23.3 kmh 29.37 in994.6 mb 0.00 in0.0 mm 0.00 in0.0 mm 0.38 in9.7 mm
12:05 PM 67.1°F19.5°C 53.7°F12.1°C 62% 2.2 mph E3.5 kmh E 14.5 mph23.3 kmh 29.37 in994.6 mb 0.00 in0.0 mm 0.00 in0.0 mm 0.38 in9.7 mm
12:10 PM 68.2°F20.1°C 54.7°F12.6°C 62% 0.7 mph E1.1 kmh E 13.6 mph21.9 kmh 29.38 in994.9 mb 0.00 in0.0 mm 0.00 in0.0 mm 0.38 in9.7 mm
12:15 PM 68.2°F20.1°C 54.7°F12.6°C 62% 3.8 mph E6.1 kmh E 6.9 mph11.1 kmh 29.38 in994.9 mb 0.00 in0.0 mm 0.00 in0.0 mm 0.38 in9.7 mm
12:20 PM 68.2°F20.1°C 54.7°F12.6°C 62% 3.8 mph E6.1 kmh E 7.6 mph12.2 kmh 29.38 in994.9 mb 0.00 in0.0 mm 0.00 in0.0 mm 0.38 in9.7 mm
12:25 PM 68.2°F20.1°C 54.7°F12.6°C 62% 6.9 mph E11.1 kmh E 9.2 mph14.8 kmh 29.38 in994.9 mb 0.00 in0.0 mm 0.00 in0.0 mm 0.38 in9.7 mm
12:30 PM 68.2°F20.1°C 54.7°F12.6°C 62% 3.1 mph E5.0 kmh E 9.2 mph14.8 kmh 29.38 in994.9 mb 0.00 in0.0 mm 0.00 in0.0 mm 0.38 in9.7 mm
12:35 PM 68.5°F20.3°C 55.0°F12.8°C 62% 10.7 mph E17.2 kmh E 23.5 mph37.8 kmh 29.39 in995.3 mb 0.01 in0.3 mm 0.12 in3.0 mm 0.39 in9.9 mm
12:40 PM 68.5°F20.3°C 55.0°F12.8°C 62% 13.0 mph SE20.9 kmh SE 23.5 mph37.8 kmh 29.38 in994.9 mb 0.01 in0.3 mm 0.00 in0.0 mm 0.39 in9.9 mm
12:45 PM 68.5°F20.3°C 55.0°F12.8°C 62% 8.3 mph SE13.4 kmh SE 18.3 mph29.5 kmh 29.38 in994.9 mb 0.01 in0.3 mm 0.00 in0.0 mm 0.39 in9.9 mm
12:50 PM 68.5°F20.3°C 55.0°F12.8°C 62% 13.0 mph SSE20.9 kmh SSE 24.4 mph39.3 kmh 29.39 in995.3 mb 0.01 in0.3 mm 0.00 in0.0 mm 0.39 in9.9 mm
12:55 PM 68.5°F20.3°C 55.0°F12.8°C 62% 6.9 mph S11.1 kmh S 24.4 mph39.3 kmh 29.39 in995.3 mb 0.01 in0.3 mm 0.00 in0.0 mm 0.39 in9.9 mm
01:00 PM 68.7°F20.4°C 55.2°F12.9°C 62% 8.3 mph SSW13.4 kmh SSW 22.1 mph35.6 kmh 29.38 in994.9 mb 0.01 in0.3 mm 0.00 in0.0 mm 0.39 in9.9 mm
01:05 PM 68.5°F20.3°C 55.0°F12.8°C 62% 9.8 mph SSW15.8 kmh SSW 21.3 mph34.3 kmh 29.38 in994.9 mb 0.01 in0.3 mm 0.00 in0.0 mm 0.39 in9.9 mm
01:10 PM 68.5°F20.3°C 55.0°F12.8°C 62% 10.7 mph S17.2 kmh S 23.5 mph37.8 kmh 29.39 in995.3 mb 0.01 in0.3 mm 0.00 in0.0 mm 0.39 in9.9 mm
01:15 PM 68.5°F20.3°C 55.0°F12.8°C 62% 6.9 mph S11.1 kmh S 23.5 mph37.8 kmh 29.39 in995.3 mb 0.01 in0.3 mm 0.00 in0.0 mm 0.39 in9.9 mm
01:20 PM 68.9°F20.5°C 55.4°F13.0°C 62% 15.9 mph S25.6 kmh S 25.9 mph41.7 kmh 29.39 in995.3 mb 0.01 in0.3 mm 0.00 in0.0 mm 0.39 in9.9 mm
01:25 PM 69.1°F20.6°C 55.5°F13.1°C 62% 6.0 mph S9.7 kmh S 25.9 mph41.7 kmh 29.39 in995.3 mb 0.01 in0.3 mm 0.00 in0.0 mm 0.39 in9.9 mm
01:30 PM 69.3°F20.7°C 55.7°F13.2°C 62% 19.7 mph S31.7 kmh S 31.1 mph50.1 kmh 29.40 in995.6 mb 0.00 in0.0 mm 0.00 in0.0 mm 0.39 in9.9 mm
01:35 PM 68.7°F20.4°C 55.2°F12.9°C 62% 12.1 mph S19.5 kmh S 31.1 mph50.1 kmh 29.40 in995.6 mb 0.00 in0.0 mm 0.00 in0.0 mm 0.39 in9.9 mm
01:40 PM 68.4°F20.2°C 54.9°F12.7°C 62% 13.6 mph S21.9 kmh S 31.1 mph50.1 kmh 29.39 in995.3 mb 0.00 in0.0 mm 0.00 in0.0 mm 0.39 in9.9 mm
01:45 PM 68.4°F20.2°C 54.9°F12.7°C 62% 7.6 mph S12.2 kmh S 24.4 mph39.3 kmh 29.40 in995.6 mb 0.00 in0.0 mm 0.00 in0.0 mm 0.39 in9.9 mm
01:50 PM 68.5°F20.3°C 55.0°F12.8°C 62% 5.4 mph S8.7 kmh S 19.7 mph31.7 kmh 29.40 in995.6 mb 0.00 in0.0 mm 0.00 in0.0 mm 0.39 in9.9 mm
01:55 PM 68.9°F20.5°C 55.4°F13.0°C 62% 3.1 mph SSW5.0 kmh SSW 13.6 mph21.9 kmh 29.40 in995.6 mb 0.00 in0.0 mm 0.00 in0.0 mm 0.39 in9.9 mm
02:00 PM 68.7°F20.4°C 55.2°F12.9°C 62% 7.6 mph S12.2 kmh S 16.8 mph27.0 kmh 29.40 in995.6 mb 0.00 in0.0 mm 0.00 in0.0 mm 0.39 in9.9 mm
02:05 PM 68.4°F20.2°C 54.9°F12.7°C 62% 12.1 mph S19.5 kmh S 23.5 mph37.8 kmh 29.41 in995.9 mb 0.00 in0.0 mm 0.00 in0.0 mm 0.39 in9.9 mm
02:10 PM 67.8°F19.9°C 54.3°F12.4°C 62% 14.5 mph S23.3 kmh S 23.5 mph37.8 kmh 29.41 in995.9 mb 0.00 in0.0 mm 0.00 in0.0 mm 0.39 in9.9 mm
02:15 PM 67.8°F19.9°C 54.3°F12.4°C 62% 16.8 mph S27.0 kmh S 23.5 mph37.8 kmh 29.41 in995.9 mb 0.00 in0.0 mm 0.00 in0.0 mm 0.39 in9.9 mm
02:20 PM 67.6°F19.8°C 54.2°F12.3°C 62% 6.9 mph S11.1 kmh S 23.5 mph37.8 kmh 29.41 in995.9 mb 0.00 in0.0 mm 0.00 in0.0 mm 0.39 in9.9 mm
02:25 PM 68.0°F20.0°C 54.5°F12.5°C 62% 3.8 mph S6.1 kmh S 23.5 mph37.8 kmh 29.41 in995.9 mb 0.00 in0.0 mm 0.00 in0.0 mm 0.39 in9.9 mm
02:30 PM 68.4°F20.2°C 54.9°F12.7°C 62% 7.6 mph SE12.2 kmh SE 13.6 mph21.9 kmh 29.41 in995.9 mb 0.00 in0.0 mm 0.00 in0.0 mm 0.39 in9.9 mm
02:35 PM 68.4°F20.2°C 54.9°F12.7°C 62% 3.1 mph SE5.0 kmh SE 13.0 mph20.9 kmh 29.41 in995.9 mb 0.00 in0.0 mm 0.00 in0.0 mm 0.39 in9.9 mm
02:40 PM 68.9°F20.5°C 55.4°F13.0°C 62% 8.3 mph NW13.4 kmh NW 13.0 mph20.9 kmh 29.41 in995.9 mb 0.00 in0.0 mm 0.00 in0.0 mm 0.39 in9.9 mm
02:45 PM 68.9°F20.5°C 55.4°F13.0°C 62% 7.6 mph NW12.2 kmh NW 13.6 mph21.9 kmh 29.41 in995.9 mb 0.00 in0.0 mm 0.00 in0.0 mm 0.39 in9.9 mm
02:50 PM 68.7°F20.4°C 55.2°F12.9°C 62% 11.4 mph NW18.3 kmh NW 19.0 mph30.6 kmh 29.42 in996.3 mb 0.00 in0.0 mm 0.00 in0.0 mm 0.39 in9.9 mm
02:55 PM 68.7°F20.4°C 55.2°F12.9°C 62% 4.5 mph W7.2 kmh W 23.5 mph37.8 kmh 29.42 in996.3 mb 0.00 in0.0 mm 0.00 in0.0 mm 0.39 in9.9 mm
03:00 PM 69.1°F20.6°C 55.5°F13.1°C 62% 8.3 mph W13.4 kmh W 23.5 mph37.8 kmh 29.42 in996.3 mb 0.00 in0.0 mm 0.00 in0.0 mm 0.39 in9.9 mm
03:05 PM 69.3°F20.7°C 55.7°F13.2°C 62% 10.7 mph SW17.2 kmh SW 25.1 mph40.4 kmh 29.41 in995.9 mb 0.00 in0.0 mm 0.00 in0.0 mm 0.39 in9.9 mm
03:10 PM 68.7°F20.4°C 55.2°F12.9°C 62% 12.1 mph SSW19.5 kmh SSW 25.9 mph41.7 kmh 29.42 in996.3 mb 0.00 in0.0 mm 0.00 in0.0 mm 0.39 in9.9 mm
03:15 PM 68.7°F20.4°C 55.2°F12.9°C 62% 8.3 mph S13.4 kmh S 25.9 mph41.7 kmh 29.42 in996.3 mb 0.00 in0.0 mm 0.00 in0.0 mm 0.39 in9.9 mm
03:20 PM 68.5°F20.3°C 55.0°F12.8°C 62% 12.1 mph S19.5 kmh S 23.5 mph37.8 kmh 29.43 in996.6 mb 0.00 in0.0 mm 0.00 in0.0 mm 0.39 in9.9 mm
03:25 PM 68.5°F20.3°C 55.0°F12.8°C 62% 11.4 mph SSE18.3 kmh SSE 23.5 mph37.8 kmh 29.43 in996.6 mb 0.00 in0.0 mm 0.00 in0.0 mm 0.39 in9.9 mm
03:30 PM 68.2°F20.1°C 54.7°F12.6°C 62% 6.9 mph SSE11.1 kmh SSE 28.2 mph45.4 kmh 29.44 in997.0 mb 0.00 in0.0 mm 0.00 in0.0 mm 0.39 in9.9 mm
03:35 PM 68.5°F20.3°C 55.0°F12.8°C 62% 6.0 mph S9.7 kmh S 28.2 mph45.4 kmh 29.43 in996.6 mb 0.00 in0.0 mm 0.00 in0.0 mm 0.39 in9.9 mm
03:40 PM 69.1°F20.6°C 55.5°F13.1°C 62% 10.7 mph S17.2 kmh S 17.4 mph28.0 kmh 29.44 in997.0 mb 0.00 in0.0 mm 0.00 in0.0 mm 0.39 in9.9 mm
03:45 PM 68.0°F20.0°C 54.5°F12.5°C 62% 9.8 mph S15.8 kmh S 19.0 mph30.6 kmh 29.45 in997.3 mb 0.00 in0.0 mm 0.00 in0.0 mm 0.39 in9.9 mm
03:50 PM 67.6°F19.8°C 54.2°F12.3°C 62% 11.4 mph NW18.3 kmh NW 22.1 mph35.6 kmh 29.45 in997.3 mb 0.00 in0.0 mm 0.00 in0.0 mm 0.39 in9.9 mm
03:55 PM 67.8°F19.9°C 54.3°F12.4°C 62% 9.2 mph NNW14.8 kmh NNW 25.1 mph40.4 kmh 29.45 in997.3 mb 0.00 in0.0 mm 0.00 in0.0 mm 0.39 in9.9 mm
04:00 PM 67.3°F19.6°C 53.8°F12.1°C 62% 6.9 mph N11.1 kmh N 25.1 mph40.4 kmh 29.45 in997.3 mb 0.00 in0.0 mm 0.00 in0.0 mm 0.39 in9.9 mm
04:05 PM 66.9°F19.4°C 53.5°F11.9°C 62% 6.9 mph SSE11.1 kmh SSE 23.5 mph37.8 kmh 29.46 in997.6 mb 0.00 in0.0 mm 0.00 in0.0 mm 0.39 in9.9 mm
04:10 PM 66.4°F19.1°C 53.0°F11.7°C 62% 6.9 mph S11.1 kmh S 15.9 mph25.6 kmh 29.46 in997.6 mb 0.00 in0.0 mm 0.00 in0.0 mm 0.39 in9.9 mm
04:15 PM 65.8°F18.8°C 52.5°F11.4°C 62% 15.9 mph SSW25.6 kmh SSW 21.3 mph34.3 kmh 29.46 in997.6 mb 0.00 in0.0 mm 0.00 in0.0 mm 0.39 in9.9 mm
04:20 PM 65.7°F18.7°C 52.3°F11.3°C 62% 4.5 mph SW7.2 kmh SW 21.3 mph34.3 kmh 29.47 in998.0 mb 0.00 in0.0 mm 0.00 in0.0 mm 0.39 in9.9 mm
04:25 PM 65.8°F18.8°C 52.5°F11.4°C 62% 14.5 mph SW23.3 kmh SW 20.6 mph33.2 kmh 29.47 in998.0 mb 0.00 in0.0 mm 0.00 in0.0 mm 0.39 in9.9 mm
04:30 PM 65.8°F18.8°C 52.5°F11.4°C 62% 8.3 mph SSW13.4 kmh SSW 19.7 mph31.7 kmh 29.47 in998.0 mb 0.00 in0.0 mm 0.00 in0.0 mm 0.39 in9.9 mm
04:35 PM 65.5°F18.6°C 52.1°F11.2°C 62% 8.3 mph SW13.4 kmh SW 25.9 mph41.7 kmh 29.48 in998.3 mb 0.00 in0.0 mm 0.00 in0.0 mm 0.39 in9.9 mm
04:40 PM 65.7°F18.7°C 52.3°F11.3°C 62% 6.9 mph W11.1 kmh W 25.9 mph41.7 kmh 29.48 in998.3 mb 0.00 in0.0 mm 0.00 in0.0 mm 0.39 in9.9 mm
04:45 PM 65.5°F18.6°C 52.1°F11.2°C 62% 19.0 mph WNW30.6 kmh WNW 32.0 mph51.5 kmh 29.48 in998.3 mb 0.00 in0.0 mm 0.00 in0.0 mm 0.39 in9.9 mm
04:50 PM 65.1°F18.4°C 51.8°F11.0°C 62% 6.9 mph W11.1 kmh W 32.0 mph51.5 kmh 29.49 in998.6 mb 0.00 in0.0 mm 0.00 in0.0 mm 0.39 in9.9 mm
04:55 PM 65.1°F18.4°C 51.8°F11.0°C 62% 15.2 mph WSW24.5 kmh WSW 32.0 mph51.5 kmh 29.48 in998.3 mb 0.00 in0.0 mm 0.00 in0.0 mm 0.39 in9.9 mm
05:00 PM 64.8°F18.2°C 51.5°F10.8°C 62% 9.2 mph WSW14.8 kmh WSW 25.1 mph40.4 kmh 29.49 in998.6 mb 0.00 in0.0 mm 0.00 in0.0 mm 0.39 in9.9 mm
05:05 PM 64.9°F18.3°C 51.6°F10.9°C 62% 7.6 mph SW12.2 kmh SW 25.1 mph40.4 kmh 29.49 in998.6 mb 0.00 in0.0 mm 0.00 in0.0 mm 0.39 in9.9 mm
05:10 PM 65.3°F18.5°C 52.0°F11.1°C 62% 8.3 mph SW13.4 kmh SW 19.7 mph31.7 kmh 29.49 in998.6 mb 0.00 in0.0 mm 0.00 in0.0 mm 0.39 in9.9 mm
05:15 PM 65.1°F18.4°C 51.8°F11.0°C 62% 8.3 mph SSW13.4 kmh SSW 15.9 mph25.6 kmh 29.50 in999.0 mb 0.00 in0.0 mm 0.00 in0.0 mm 0.39 in9.9 mm
05:20 PM 65.1°F18.4°C 51.8°F11.0°C 62% 4.5 mph S7.2 kmh S 18.3 mph29.5 kmh 29.50 in999.0 mb 0.00 in0.0 mm 0.00 in0.0 mm 0.39 in9.9 mm
05:25 PM 66.4°F19.1°C 53.0°F11.7°C 62% 10.7 mph SSW17.2 kmh SSW 18.3 mph29.5 kmh 29.49 in998.6 mb 0.00 in0.0 mm 0.00 in0.0 mm 0.39 in9.9 mm
05:30 PM 67.1°F19.5°C 53.7°F12.1°C 62% 3.8 mph SW6.1 kmh SW 28.2 mph45.4 kmh 29.49 in998.6 mb 0.00 in0.0 mm 0.00 in0.0 mm 0.39 in9.9 mm
05:35 PM 67.8°F19.9°C 54.3°F12.4°C 62% 11.4 mph SW18.3 kmh SW 28.2 mph45.4 kmh 29.49 in998.6 mb 0.00 in0.0 mm 0.00 in0.0 mm 0.39 in9.9 mm
05:40 PM 68.0°F20.0°C 54.5°F12.5°C 62% 7.6 mph SW12.2 kmh SW 21.3 mph34.3 kmh 29.50 in999.0 mb 0.00 in0.0 mm 0.00 in0.0 mm 0.39 in9.9 mm
05:45 PM 68.4°F20.2°C 54.9°F12.7°C 62% 7.6 mph SW12.2 kmh SW 21.3 mph34.3 kmh 29.50 in999.0 mb 0.00 in0.0 mm 0.00 in0.0 mm 0.39 in9.9 mm
05:50 PM 68.0°F20.0°C 54.5°F12.5°C 62% 6.0 mph SW9.7 kmh SW 18.3 mph29.5 kmh 29.51 in999.3 mb 0.00 in0.0 mm 0.00 in0.0 mm 0.39 in9.9 mm
05:55 PM 67.6°F19.8°C 54.2°F12.3°C 62% 6.0 mph SW9.7 kmh SW 19.7 mph31.7 kmh 29.49 in998.6 mb 0.00 in0.0 mm 0.00 in0.0 mm 0.39 in9.9 mm
06:00 PM 67.8°F19.9°C 54.3°F12.4°C 62% 10.7 mph WSW17.2 kmh WSW 22.8 mph36.7 kmh 29.50 in999.0 mb 0.00 in0.0 mm 0.00 in0.0 mm 0.39 in9.9 mm
06:05 PM 68.4°F20.2°C 54.9°F12.7°C 62% 3.1 mph WSW5.0 kmh WSW 22.8 mph36.7 kmh 29.49 in998.6 mb 0.00 in0.0 mm 0.00 in0.0 mm 0.39 in9.9 mm
06:10 PM 69.4°F20.8°C 55.9°F13.3°C 62% 6.9 mph WSW11.1 kmh WSW 22.8 mph36.7 kmh 29.50 in999.0 mb 0.00 in0.0 mm 0.00 in0.0 mm 0.39 in9.9 mm
06:15 PM 68.7°F20.4°C 55.2°F12.9°C 62% 3.1 mph WSW5.0 kmh WSW 15.9 mph25.6 kmh 29.50 in999.0 mb 0.00 in0.0 mm 0.00 in0.0 mm 0.39 in9.9 mm
06:20 PM 68.2°F20.1°C 54.7°F12.6°C 62% 6.0 mph SSW9.7 kmh SSW 15.9 mph25.6 kmh 29.50 in999.0 mb 0.00 in0.0 mm 0.00 in0.0 mm 0.39 in9.9 mm
06:25 PM 68.5°F20.3°C 55.0°F12.8°C 62% 3.1 mph S5.0 kmh S 14.5 mph23.3 kmh 29.50 in999.0 mb 0.00 in0.0 mm 0.00 in0.0 mm 0.39 in9.9 mm
06:30 PM 69.1°F20.6°C 55.5°F13.1°C 62% 3.8 mph SSE6.1 kmh SSE 10.7 mph17.2 kmh 29.50 in999.0 mb 0.00 in0.0 mm 0.00 in0.0 mm 0.39 in9.9 mm
06:35 PM 68.7°F20.4°C 55.2°F12.9°C 62% 5.4 mph SE8.7 kmh SE 10.7 mph17.2 kmh 29.50 in999.0 mb 0.00 in0.0 mm 0.00 in0.0 mm 0.39 in9.9 mm
06:40 PM 68.4°F20.2°C 54.9°F12.7°C 62% 7.6 mph SE12.2 kmh SE 12.1 mph19.5 kmh 29.51 in999.3 mb 0.00 in0.0 mm 0.00 in0.0 mm 0.39 in9.9 mm
06:45 PM 66.0°F18.9°C 52.6°F11.4°C 62% 8.3 mph SE13.4 kmh SE 21.3 mph34.3 kmh 29.51 in999.3 mb 0.00 in0.0 mm 0.00 in0.0 mm 0.39 in9.9 mm
06:50 PM 66.2°F19.0°C 52.8°F11.6°C 62% 6.9 mph SE11.1 kmh SE 21.3 mph34.3 kmh 29.52 in999.7 mb 0.00 in0.0 mm 0.00 in0.0 mm 0.39 in9.9 mm
06:55 PM 66.4°F19.1°C 53.0°F11.7°C 62% 5.4 mph SE8.7 kmh SE 13.6 mph21.9 kmh 29.51 in999.3 mb 0.00 in0.0 mm 0.00 in0.0 mm 0.39 in9.9 mm
07:00 PM 65.8°F18.8°C 52.5°F11.4°C 62% 5.4 mph SE8.7 kmh SE 12.1 mph19.5 kmh 29.52 in999.7 mb 0.00 in0.0 mm 0.00 in0.0 mm 0.39 in9.9 mm
07:05 PM 65.5°F18.6°C 52.1°F11.2°C 62% 7.6 mph SE12.2 kmh SE 19.7 mph31.7 kmh 29.51 in999.3 mb 0.00 in0.0 mm 0.00 in0.0 mm 0.39 in9.9 mm
07:10 PM 65.3°F18.5°C 52.0°F11.1°C 62% 8.3 mph SE13.4 kmh SE 19.7 mph31.7 kmh 29.52 in999.7 mb 0.00 in0.0 mm 0.00 in0.0 mm 0.39 in9.9 mm
07:15 PM 65.1°F18.4°C 51.8°F11.0°C 62% 7.6 mph SE12.2 kmh SE 18.3 mph29.5 kmh 29.52 in999.7 mb 0.00 in0.0 mm 0.00 in0.0 mm 0.39 in9.9 mm
07:20 PM 65.1°F18.4°C 51.8°F11.0°C 62% 6.9 mph SE11.1 kmh SE 17.4 mph28.0 kmh 29.52 in999.7 mb 0.00 in0.0 mm 0.00 in0.0 mm 0.39 in9.9 mm
07:25 PM 64.0°F17.8°C 50.8°F10.4°C 62% 8.3 mph SE13.4 kmh SE 26.6 mph42.8 kmh 29.52 in999.7 mb 0.00 in0.0 mm 0.00 in0.0 mm 0.39 in9.9 mm
07:30 PM 63.7°F17.6°C 50.4°F10.2°C 62% 6.0 mph S9.7 kmh S 26.6 mph42.8 kmh 29.52 in999.7 mb 0.00 in0.0 mm 0.00 in0.0 mm 0.39 in9.9 mm
07:35 PM 63.3°F17.4°C 50.1°F10.1°C 62% 12.1 mph SW19.5 kmh SW 25.1 mph40.4 kmh 29.53 in1000.0 mb 0.00 in0.0 mm 0.00 in0.0 mm 0.39 in9.9 mm
07:40 PM 63.1°F17.3°C 49.9°F9.9°C 62% 10.7 mph SW17.2 kmh SW 25.1 mph40.4 kmh 29.53 in1000.0 mb 0.00 in0.0 mm 0.00 in0.0 mm 0.39 in9.9 mm
07:45 PM 63.5°F17.5°C 50.3°F10.2°C 62% 3.1 mph S5.0 kmh S 22.1 mph35.6 kmh 29.53 in1000.0 mb 0.00 in0.0 mm 0.00 in0.0 mm 0.39 in9.9 mm
07:50 PM 63.3°F17.4°C 50.1°F10.1°C 62% 10.7 mph SSE17.2 kmh SSE 22.1 mph35.6 kmh 29.54 in1000.3 mb 0.00 in0.0 mm 0.00 in0.0 mm 0.39 in9.9 mm
07:55 PM 63.1°F17.3°C 49.9°F9.9°C 62% 13.0 mph S20.9 kmh S 20.6 mph33.2 kmh 29.54 in1000.3 mb 0.00 in0.0 mm 0.00 in0.0 mm 0.39 in9.9 mm
08:00 PM 62.8°F17.1°C 49.6°F9.8°C 62% 9.2 mph S14.8 kmh S 16.8 mph27.0 kmh 29.53 in1000.0 mb 0.00 in0.0 mm 0.00 in0.0 mm 0.39 in9.9 mm
08:05 PM 62.4°F16.9°C 49.2°F9.6°C 62% 6.9 mph S11.1 kmh S 16.8 mph27.0 kmh 29.54 in1000.3 mb 0.00 in0.0 mm 0.00 in0.0 mm 0.39 in9.9 mm
08:10 PM 62.2°F16.8°C 49.1°F9.5°C 62% 15.2 mph S24.5 kmh S 25.1 mph40.4 kmh 29.54 in1000.3 mb 0.00 in0.0 mm 0.00 in0.0 mm 0.39 in9.9 mm
08:15 PM 62.4°F16.9°C 49.2°F9.6°C 62% 12.1 mph SW19.5 kmh SW 25.1 mph40.4 kmh 29.54 in1000.3 mb 0.00 in0.0 mm 0.00 in0.0 mm 0.39 in9.9 mm
08:20 PM 62.2°F16.8°C 49.1°F9.5°C 62% 6.0 mph SW9.7 kmh SW 24.4 mph39.3 kmh 29.53 in1000.0 mb 0.00 in0.0 mm 0.00 in0.0 mm 0.39 in9.9 mm
08:25 PM 62.1°F16.7°C 48.9°F9.4°C 62% 10.7 mph WSW17.2 kmh WSW 16.8 mph27.0 kmh 29.54 in1000.3 mb 0.00 in0.0 mm 0.00 in0.0 mm 0.39 in9.9 mm
08:30 PM 62.1°F16.7°C 48.9°F9.4°C 62% 5.4 mph WSW8.7 kmh WSW 20.6 mph33.2 kmh 29.54 in1000.3 mb 0.00 in0.0 mm 0.00 in0.0 mm 0.39 in9.9 mm
08:35 PM 62.1°F16.7°C 48.9°F9.4°C 62% 16.8 mph SW27.0 kmh SW 28.2 mph45.4 kmh 29.54 in1000.3 mb 0.00 in0.0 mm 0.00 in0.0 mm 0.39 in9.9 mm
08:40 PM 61.9°F16.6°C 48.7°F9.3°C 62% 11.4 mph SW18.3 kmh SW 28.2 mph45.4 kmh 29.54 in1000.3 mb 0.00 in0.0 mm 0.00 in0.0 mm 0.39 in9.9 mm
08:45 PM 61.7°F16.5°C 48.6°F9.2°C 62% 3.8 mph SW6.1 kmh SW 28.2 mph45.4 kmh 29.55 in1000.7 mb 0.00 in0.0 mm 0.00 in0.0 mm 0.39 in9.9 mm
08:50 PM 61.3°F16.3°C 48.2°F9.0°C 62% 6.9 mph SW11.1 kmh SW 22.8 mph36.7 kmh 29.55 in1000.7 mb 0.00 in0.0 mm 0.00 in0.0 mm 0.39 in9.9 mm
08:55 PM 61.5°F16.4°C 48.4°F9.1°C 62% 9.8 mph S15.8 kmh S 26.6 mph42.8 kmh 29.55 in1000.7 mb 0.00 in0.0 mm 0.00 in0.0 mm 0.39 in9.9 mm
09:00 PM 61.3°F16.3°C 48.2°F9.0°C 62% 12.1 mph S19.5 kmh S 26.6 mph42.8 kmh 29.56 in1001.0 mb 0.00 in0.0 mm 0.00 in0.0 mm 0.39 in9.9 mm
09:05 PM 61.2°F16.2°C 48.1°F8.9°C 62% 13.6 mph S21.9 kmh S 27.3 mph43.9 kmh 29.55 in1000.7 mb 0.00 in0.0 mm 0.00 in0.0 mm 0.39 in9.9 mm
09:10 PM 60.8°F16.0°C 47.7°F8.7°C 62% 12.1 mph S19.5 kmh S 27.3 mph43.9 kmh 29.55 in1000.7 mb 0.00 in0.0 mm 0.00 in0.0 mm 0.39 in9.9 mm
09:15 PM 60.8°F16.0°C 47.7°F8.7°C 62% 6.9 mph SW11.1 kmh SW 22.8 mph36.7 kmh 29.55 in1000.7 mb 0.00 in0.0 mm 0.00 in0.0 mm 0.39 in9.9 mm
09:20 PM 60.6°F15.9°C 47.5°F8.6°C 62% 13.6 mph WSW21.9 kmh WSW 24.4 mph39.3 kmh 29.55 in1000.7 mb 0.00 in0.0 mm 0.00 in0.0 mm 0.39 in9.9 mm
09:25 PM 60.6°F15.9°C 47.5°F8.6°C 62% 15.9 mph WSW25.6 kmh WSW 24.4 mph39.3 kmh 29.55 in1000.7 mb 0.00 in0.0 mm 0.00 in0.0 mm 0.39 in9.9 mm
09:30 PM 60.6°F15.9°C 47.5°F8.6°C 62% 14.5 mph W23.3 kmh W 26.6 mph42.8 kmh 29.56 in1001.0 mb 0.00 in0.0 mm 0.00 in0.0 mm 0.39 in9.9 mm
09:35 PM 60.4°F15.8°C 47.4°F8.6°C 62% 12.1 mph WSW19.5 kmh WSW 26.6 mph42.8 kmh 29.56 in1001.0 mb 0.00 in0.0 mm 0.00 in0.0 mm 0.39 in9.9 mm
09:40 PM 60.3°F15.7°C 47.2°F8.4°C 62% 10.7 mph SW17.2 kmh SW 25.1 mph40.4 kmh 29.56 in1001.0 mb 0.00 in0.0 mm 0.00 in0.0 mm 0.39 in9.9 mm
09:45 PM 60.3°F15.7°C 47.2°F8.4°C 62% 13.6 mph SSW21.9 kmh SSW 28.2 mph45.4 kmh 29.56 in1001.0 mb 0.00 in0.0 mm 0.00 in0.0 mm 0.39 in9.9 mm
09:50 PM 60.3°F15.7°C 47.2°F8.4°C 62% 9.2 mph SSW14.8 kmh SSW 28.2 mph45.4 kmh 29.56 in1001.0 mb 0.00 in0.0 mm 0.00 in0.0 mm 0.39 in9.9 mm
09:55 PM 59.9°F15.5°C 46.9°F8.3°C 62% 10.7 mph SW17.2 kmh SW 28.2 mph45.4 kmh 29.56 in1001.0 mb 0.00 in0.0 mm 0.00 in0.0 mm 0.39 in9.9 mm
10:00 PM 59.7°F15.4°C 46.7°F8.2°C 62% 11.4 mph W18.3 kmh W 19.0 mph30.6 kmh 29.56 in1001.0 mb 0.00 in0.0 mm 0.00 in0.0 mm 0.39 in9.9 mm
10:05 PM 59.5°F15.3°C 46.5°F8.1°C 62% 9.2 mph WSW14.8 kmh WSW 19.0 mph30.6 kmh 29.56 in1001.0 mb 0.00 in0.0 mm 0.00 in0.0 mm 0.39 in9.9 mm
10:10 PM 59.2°F15.1°C 46.2°F7.9°C 62% 5.4 mph SW8.7 kmh SW 19.0 mph30.6 kmh 29.56 in1001.0 mb 0.00 in0.0 mm 0.00 in0.0 mm 0.39 in9.9 mm
10:15 PM 59.2°F15.1°C 46.2°F7.9°C 62% 7.6 mph SW12.2 kmh SW 15.2 mph24.5 kmh 29.55 in1000.7 mb 0.00 in0.0 mm 0.00 in0.0 mm 0.39 in9.9 mm
10:20 PM 59.2°F15.1°C 46.2°F7.9°C 62% 1.6 mph WSW2.6 kmh WSW 15.2 mph24.5 kmh 29.56 in1001.0 mb 0.00 in0.0 mm 0.00 in0.0 mm 0.39 in9.9 mm
10:25 PM 59.0°F15.0°C 46.0°F7.8°C 62% 3.8 mph W6.1 kmh W 15.2 mph24.5 kmh 29.56 in1001.0 mb 0.00 in0.0 mm 0.00 in0.0 mm 0.39 in9.9 mm
10:30 PM 58.6°F14.8°C 45.7°F7.6°C 62% 3.8 mph W6.1 kmh W 8.3 mph13.4 kmh 29.56 in1001.0 mb 0.00 in0.0 mm 0.00 in0.0 mm 0.39 in9.9 mm
10:35 PM 58.3°F14.6°C 45.3°F7.4°C 62% 2.2 mph W3.5 kmh W 8.3 mph13.4 kmh 29.56 in1001.0 mb 0.00 in0.0 mm 0.00 in0.0 mm 0.39 in9.9 mm
10:40 PM 58.3°F14.6°C 45.3°F7.4°C 62% 4.5 mph W7.2 kmh W 8.3 mph13.4 kmh 29.57 in1001.4 mb 0.00 in0.0 mm 0.00 in0.0 mm 0.39 in9.9 mm
10:45 PM 58.1°F14.5°C 45.2°F7.3°C 62% 2.2 mph W3.5 kmh W 8.3 mph13.4 kmh 29.57 in1001.4 mb 0.00 in0.0 mm 0.00 in0.0 mm 0.39 in9.9 mm
10:50 PM 58.1°F14.5°C 45.2°F7.3°C 62% Calm Calm 6.9 mph11.1 kmh 29.57 in1001.4 mb 0.00 in0.0 mm 0.00 in0.0 mm 0.39 in9.9 mm
10:55 PM 57.9°F14.4°C 45.0°F7.2°C 62% 4.5 mph W7.2 kmh W 6.0 mph9.7 kmh 29.57 in1001.4 mb 0.00 in0.0 mm 0.00 in0.0 mm 0.39 in9.9 mm
11:00 PM 57.9°F14.4°C 45.0°F7.2°C 62% 0.7 mph W1.1 kmh W 6.0 mph9.7 kmh 29.58 in1001.7 mb 0.00 in0.0 mm 0.00 in0.0 mm 0.39 in9.9 mm
11:05 PM 57.6°F14.2°C 44.7°F7.1°C 62% 1.6 mph W2.6 kmh W 6.0 mph9.7 kmh 29.57 in1001.4 mb 0.00 in0.0 mm 0.00 in0.0 mm 0.39 in9.9 mm
11:10 PM 57.2°F14.0°C 44.3°F6.8°C 62% 3.1 mph W5.0 kmh W 5.4 mph8.7 kmh 29.57 in1001.4 mb 0.00 in0.0 mm 0.00 in0.0 mm 0.39 in9.9 mm
11:15 PM 57.0°F13.9°C 44.1°F6.7°C 62% 4.5 mph W7.2 kmh W 7.6 mph12.2 kmh 29.57 in1001.4 mb 0.00 in0.0 mm 0.00 in0.0 mm 0.39 in9.9 mm
11:20 PM 57.2°F14.0°C 44.3°F6.8°C 62% 6.9 mph W11.1 kmh W 11.4 mph18.3 kmh 29.57 in1001.4 mb 0.00 in0.0 mm 0.00 in0.0 mm 0.39 in9.9 mm
11:25 PM 57.0°F13.9°C 44.1°F6.7°C 62% 4.5 mph W7.2 kmh W 11.4 mph18.3 kmh 29.57 in1001.4 mb 0.00 in0.0 mm 0.00 in0.0 mm 0.39 in9.9 mm
11:30 PM 56.8°F13.8°C 44.0°F6.7°C 62% 3.1 mph NW5.0 kmh NW 8.3 mph13.4 kmh 29.57 in1001.4 mb 0.00 in0.0 mm 0.00 in0.0 mm 0.39 in9.9 mm
11:35 PM 56.8°F13.8°C 44.0°F6.7°C 62% 5.4 mph N8.7 kmh N 7.6 mph12.2 kmh 29.57 in1001.4 mb 0.00 in0.0 mm 0.00 in0.0 mm 0.39 in9.9 mm
11:40 PM 56.7°F13.7°C 43.8°F6.6°C 62% 5.4 mph N8.7 kmh N 7.6 mph12.2 kmh 29.57 in1001.4 mb 0.00 in0.0 mm 0.00 in0.0 mm 0.39 in9.9 mm
11:50 PM 56.7°F13.7°C 43.8°F6.6°C 62% 2.2 mph NNW3.5 kmh NNW 6.9 mph11.1 kmh 29.57 in1001.4 mb 0.00 in0.0 mm 0.00 in0.0 mm 0.39 in9.9 mm
11:55 PM 56.7°F13.7°C 43.8°F6.6°C 62% 3.1 mph NNW5.0 kmh NNW 4.5 mph7.2 kmh 29.57 in1001.4 mb 0.00 in0.0 mm 0.00 in0.0 mm 0.39 in9.9 mm